Time;durP1;ratioP1;P1;durP2;ratioP2;P2;SDS_P1;SDS_P2;PMS_P1;PMS_P2;Temp;Humidity;BMP_temperature;BMP_pressure;BME280_temperature;BME280_humidity;BME280_pressure;Samples;Min_cycle;Max_cycle;Signal;HPM_P1;HPM_P2
2021/04/10 00:02:05;;;;;;;38.10;19.17;;;;;;;2.17;62.19;101089.55;1735780;82;21321;-79
2021/04/10 00:05:10;;;;;;;34.45;18.70;;;;;;;2.18;62.43;101090.41;1736081;82;21294;-79
2021/04/10 00:08:15;;;;;;;34.53;17.67;;;;;;;2.13;62.62;101093.91;1736083;82;21352;-79
2021/04/10 00:11:20;;;;;;;30.12;18.35;;;;;;;2.07;62.89;101095.64;1736129;82;21291;-79
2021/04/10 00:14:25;;;;;;;35.15;16.75;;;;;;;2.02;63.07;101093.25;1736156;82;21160;-79
2021/04/10 00:17:32;;;;;;;37.15;18.42;;;;;;;1.96;63.18;101095.02;1736053;82;21310;-80
2021/04/10 00:20:38;;;;;;;38.55;17.30;;;;;;;1.89;63.26;101095.92;1736225;82;21601;-79
2021/04/10 00:23:45;;;;;;;30.85;17.30;;;;;;;1.84;63.26;101094.50;1736124;82;21310;-79
2021/04/10 00:26:50;;;;;;;39.83;17.77;;;;;;;1.78;63.18;101103.35;1736119;82;21223;-79
2021/04/10 00:29:58;;;;;;;33.55;17.62;;;;;;;1.75;63.14;101100.88;1736045;82;21278;-79
2021/04/10 00:33:04;;;;;;;32.40;17.92;;;;;;;1.72;63.17;101104.25;1736037;82;21333;-79
2021/04/10 00:36:11;;;;;;;37.80;18.40;;;;;;;1.68;63.29;101100.88;1735960;82;21293;-79
2021/04/10 00:39:17;;;;;;;32.95;15.88;;;;;;;1.65;63.35;101098.89;1736120;82;21298;-80
2021/04/10 00:42:22;;;;;;;33.58;17.52;;;;;;;1.59;63.42;101098.78;1735900;82;21352;-80
2021/04/10 00:45:28;;;;;;;37.55;18.42;;;;;;;1.54;63.42;101096.87;1736115;82;21295;-79
2021/04/10 00:48:33;;;;;;;46.13;18.40;;;;;;;1.52;63.40;101097.47;1736059;82;21337;-79
2021/04/10 00:51:39;;;;;;;30.52;16.42;;;;;;;1.51;63.31;101097.09;1736098;82;21309;-79
2021/04/10 00:54:45;;;;;;;36.80;18.10;;;;;;;1.47;63.24;101099.11;1712053;82;21303;-80
2021/04/10 00:57:51;;;;;;;33.42;17.75;;;;;;;1.44;63.16;101093.90;1712227;84;21312;-79
2021/04/10 01:00:56;;;;;;;41.85;16.75;;;;;;;1.45;63.02;101094.28;1712323;84;21307;-79
2021/04/10 01:04:05;;;;;;;35.20;16.17;;;;;;;1.47;62.83;101092.85;1712488;84;21311;-80
2021/04/10 01:07:12;;;;;;;26.80;14.10;;;;;;;1.46;62.71;101096.52;1712000;83;21184;-79
2021/04/10 01:10:21;;;;;;;36.38;16.82;;;;;;;1.46;62.59;101100.56;1712528;84;21278;-79
2021/04/10 01:13:56;;;;;;;37.78;17.17;;;;;;;1.42;62.55;101097.67;1712423;84;21194;-79
2021/04/10 01:17:16;;;;;;;36.73;17.73;;;;;;;1.44;62.45;101099.78;1712414;84;21212;-79
2021/04/10 01:20:41;;;;;;;38.28;17.67;;;;;;;1.45;62.31;101094.28;1712413;82;21309;-79
2021/04/10 01:24:24;;;;;;;40.00;17.32;;;;;;;1.45;62.12;101092.06;1712463;84;21318;-79
2021/04/10 01:28:01;;;;;;;32.55;16.35;;;;;;;1.46;62.02;101097.87;1696104;84;21347;-79
2021/04/10 01:31:06;;;;;;;32.95;17.45;;;;;;;1.46;61.98;101097.87;1712479;84;21173;-79
2021/04/10 01:34:15;;;;;;;32.20;16.02;;;;;;;1.42;61.94;101093.15;1712408;82;21319;-79
2021/04/10 01:37:29;;;;;;;33.70;15.10;;;;;;;1.42;61.89;101090.45;1712231;84;21320;-79
2021/04/10 01:40:37;;;;;;;39.65;16.23;;;;;;;1.41;61.95;101091.42;1712447;84;21307;-79
2021/04/10 01:43:44;;;;;;;30.97;16.70;;;;;;;1.40;61.96;101094.20;1712520;82;21723;-79
2021/04/10 01:46:49;;;;;;;38.95;17.15;;;;;;;1.40;61.79;101087.45;1691050;84;21283;-79
2021/04/10 01:49:56;;;;;;;34.43;15.35;;;;;;;1.42;61.64;101091.80;1712563;84;21205;-80
2021/04/10 01:53:01;;;;;;;34.43;16.95;;;;;;;1.45;61.49;101094.28;1712367;83;21184;-80
2021/04/10 01:56:09;;;;;;;36.55;16.27;;;;;;;1.45;61.40;101095.63;1712451;83;21350;-79
2021/04/10 01:59:22;;;;;;;37.38;17.35;;;;;;;1.45;61.34;101094.77;1712500;84;21838;-79
2021/04/10 02:02:29;;;;;;;40.10;16.70;;;;;;;1.42;61.33;101096.33;1712522;84;21864;-79
2021/04/10 02:05:36;;;;;;;32.25;16.87;;;;;;;1.43;61.30;101103.45;1712465;84;21291;-80
2021/04/10 02:08:48;;;;;;;27.93;13.18;;;;;;;1.43;61.19;101103.45;1712514;84;21208;-80
2021/04/10 02:11:57;;;;;;;42.85;15.85;;;;;;;1.44;61.13;101106.03;1712449;84;21284;-79
2021/04/10 02:15:06;;;;;;;28.60;16.55;;;;;;;1.42;61.18;101099.02;1712315;84;21275;-79
2021/04/10 02:18:14;;;;;;;37.83;16.23;;;;;;;1.37;61.05;101099.31;1712389;84;21343;-80
2021/04/10 02:21:26;;;;;;;40.88;17.12;;;;;;;1.34;61.08;101099.99;1712417;84;21201;-79
2021/04/10 02:24:29;;;;;;;30.35;16.07;;;;;;;1.32;61.05;101093.81;1712448;84;21279;-79
2021/04/10 02:27:35;;;;;;;29.65;15.03;;;;;;;1.32;61.01;101096.51;1712424;84;21315;-79
2021/04/10 02:30:42;;;;;;;32.58;14.65;;;;;;;1.29;61.05;101098.94;1685831;84;21291;-79
2021/04/10 02:33:49;;;;;;;34.38;16.55;;;;;;;1.26;60.97;101106.72;1691183;84;21370;-79
2021/04/10 02:36:57;;;;;;;41.23;15.43;;;;;;;1.23;60.90;101101.55;1712387;84;21861;-79
2021/04/10 02:40:04;;;;;;;36.08;16.30;;;;;;;1.22;60.90;101106.56;1710933;83;21165;-79
2021/04/10 02:43:15;;;;;;;35.15;16.52;;;;;;;1.21;60.97;101106.63;1712480;84;21745;-79
2021/04/10 02:46:20;;;;;;;24.72;13.55;;;;;;;1.20;60.95;101107.12;1712465;84;21279;-79
2021/04/10 02:49:33;;;;;;;35.17;16.20;;;;;;;1.19;60.93;101109.44;1712452;84;21161;-79
2021/04/10 02:52:47;;;;;;;29.52;15.05;;;;;;;1.19;60.92;101104.53;1712328;82;21810;-79
2021/04/10 02:55:56;;;;;;;22.65;12.43;;;;;;;1.19;60.79;101108.09;1718406;83;21221;-79
2021/04/10 02:59:01;;;;;;;30.02;14.75;;;;;;;1.23;60.76;101108.28;1696610;83;21994;-79
2021/04/10 03:02:07;;;;;;;26.23;14.25;;;;;;;1.26;60.63;101113.94;1716838;83;21311;-79
2021/04/10 03:05:14;;;;;;;33.02;14.40;;;;;;;1.30;60.52;101111.92;1717023;83;21734;-79
2021/04/10 03:08:24;;;;;;;33.10;15.25;;;;;;;1.32;60.47;101114.03;1716938;83;21296;-80
2021/04/10 03:11:32;;;;;;;31.15;13.35;;;;;;;1.35;60.39;101117.89;1717142;83;21161;-79
2021/04/10 03:14:39;;;;;;;28.98;14.47;;;;;;;1.40;60.30;101119.80;1717029;83;21169;-79
2021/04/10 03:17:47;;;;;;;22.30;12.98;;;;;;;1.45;60.21;101124.42;1717044;83;21212;-79
2021/04/10 03:20:52;;;;;;;30.52;14.60;;;;;;;1.48;60.15;101126.45;1717019;83;21319;-80
2021/04/10 03:24:00;;;;;;;27.40;13.30;;;;;;;1.53;60.05;101126.16;1716777;83;21291;-79
2021/04/10 03:27:05;;;;;;;29.55;14.90;;;;;;;1.60;60.00;101135.59;1716779;83;21864;-79
2021/04/10 03:30:14;;;;;;;25.40;13.25;;;;;;;1.64;59.86;101133.05;1716929;82;21213;-79
2021/04/10 03:33:19;;;;;;;27.62;14.05;;;;;;;1.73;59.81;101136.50;1716966;82;21347;-79
2021/04/10 03:36:25;;;;;;;30.10;14.75;;;;;;;1.82;59.70;101131.48;1716813;83;21185;-79
2021/04/10 03:39:33;;;;;;;33.10;14.60;;;;;;;1.90;59.62;101134.56;1716462;82;21888;-79
2021/04/10 03:42:50;;;;;;;22.52;13.55;;;;;;;1.97;59.49;101126.42;1715459;83;21350;-79
2021/04/10 03:45:57;;;;;;;25.20;13.30;;;;;;;2.04;59.36;101128.63;1716946;83;21288;-79
2021/04/10 03:49:04;;;;;;;32.23;15.32;;;;;;;2.12;59.30;101130.83;1716945;82;21375;-79
2021/04/10 03:52:11;;;;;;;23.62;13.30;;;;;;;2.19;59.28;101132.13;1716875;83;21331;-79
2021/04/10 03:55:18;;;;;;;27.25;15.35;;;;;;;2.30;59.14;101128.70;1716915;83;21621;-80
2021/04/10 03:58:24;;;;;;;32.17;14.83;;;;;;;2.41;59.08;101130.21;1717050;83;21208;-81
2021/04/10 04:01:31;;;;;;;28.00;14.70;;;;;;;2.52;59.08;101137.58;1716994;83;21303;-79
2021/04/10 04:04:36;;;;;;;26.50;12.37;;;;;;;2.64;59.14;101130.48;1717011;83;21333;-79
2021/04/10 04:07:41;;;;;;;28.05;13.28;;;;;;;2.76;58.85;101130.48;1716991;83;21790;-79
2021/04/10 04:10:47;;;;;;;25.32;13.18;;;;;;;2.83;58.71;101131.43;1717092;83;21201;-79
2021/04/10 04:13:53;;;;;;;31.20;15.32;;;;;;;2.94;58.65;101132.88;1716865;83;21310;-79
2021/04/10 04:16:59;;;;;;;28.90;15.05;;;;;;;3.02;58.52;101130.52;1716730;83;21338;-79
2021/04/10 04:20:05;;;;;;;37.40;14.13;;;;;;;3.16;58.32;101132.25;1715353;82;21307;-79
2021/04/10 04:23:11;;;;;;;26.00;12.78;;;;;;;3.26;58.18;101134.18;1715294;82;21209;-79
2021/04/10 04:26:18;;;;;;;22.77;12.35;;;;;;;3.42;58.30;101127.66;1694662;84;21184;-79
2021/04/10 04:29:26;;;;;;;25.40;12.40;;;;;;;3.57;58.12;101137.37;1736125;82;21284;-80
2021/04/10 04:32:31;;;;;;;29.87;13.53;;;;;;;3.74;57.80;101136.16;1724526;83;21307;-79
2021/04/10 04:35:36;;;;;;;33.18;14.53;;;;;;;3.90;57.35;101142.64;1723657;82;21869;-79
2021/04/10 04:38:43;;;;;;;20.43;11.25;;;;;;;4.05;57.13;101139.69;1700384;83;21327;-80
2021/04/10 04:41:48;;;;;;;25.92;11.80;;;;;;;4.23;56.62;101141.97;1722492;83;21208;-79
2021/04/10 04:44:54;;;;;;;26.87;13.05;;;;;;;4.39;56.79;101142.56;1701714;83;21212;-80
2021/04/10 04:48:00;;;;;;;23.80;11.43;;;;;;;4.58;56.21;101151.51;1721943;83;21260;-80
2021/04/10 04:51:05;;;;;;;25.50;12.73;;;;;;;4.74;56.00;101151.18;1701894;83;21268;-80
2021/04/10 04:54:12;;;;;;;26.73;12.25;;;;;;;4.87;55.96;101148.76;1722531;83;21306;-80
2021/04/10 04:57:17;;;;;;;18.52;11.38;;;;;;;5.03;54.05;101147.55;1722282;83;21250;-80
2021/04/10 05:00:22;;;;;;;25.85;11.25;;;;;;;5.14;54.26;101157.09;1722759;83;21275;-80
2021/04/10 05:03:28;;;;;;;17.50;10.65;;;;;;;5.25;53.23;101150.80;1702309;83;21286;-80
2021/04/10 05:06:34;;;;;;;22.17;12.28;;;;;;;5.35;53.00;101153.16;1697257;83;21278;-80
2021/04/10 05:09:40;;;;;;;22.73;11.57;;;;;;;5.46;53.00;101157.25;1722801;83;21241;-80
2021/04/10 05:12:46;;;;;;;18.57;9.23;;;;;;;5.58;52.47;101154.88;1722749;83;21200;-79
2021/04/10 05:15:51;;;;;;;21.15;10.78;;;;;;;5.66;52.48;101163.78;1722606;83;21553;-80
2021/04/10 05:18:57;;;;;;;20.25;10.93;;;;;;;5.75;52.05;101154.03;1722648;83;21314;-80
2021/04/10 05:22:02;;;;;;;19.45;10.72;;;;;;;5.83;52.19;101161.03;1722643;83;21716;-80
2021/04/10 05:25:07;;;;;;;22.32;11.28;;;;;;;5.90;51.65;101165.85;1722528;83;21330;-80
2021/04/10 05:28:12;;;;;;;21.02;10.68;;;;;;;5.98;52.05;101167.12;1722694;82;21334;-80
2021/04/10 05:31:17;;;;;;;25.55;10.88;;;;;;;6.06;51.73;101161.90;1722661;82;21279;-80
2021/04/10 05:34:22;;;;;;;17.23;10.18;;;;;;;6.15;51.58;101162.00;1722684;83;21283;-80
2021/04/10 05:37:29;;;;;;;20.15;9.88;;;;;;;6.25;51.16;101165.31;1701548;83;21753;-80
2021/04/10 05:40:37;;;;;;;22.37;9.75;;;;;;;6.33;51.24;101162.33;1700773;83;21912;-80
2021/04/10 05:43:44;;;;;;;17.40;10.10;;;;;;;6.47;51.65;101161.17;1696829;83;21824;-79
2021/04/10 05:46:49;;;;;;;21.90;9.95;;;;;;;6.62;51.08;101160.37;1722223;83;21276;-81
2021/04/10 05:49:55;;;;;;;19.05;10.25;;;;;;;6.79;50.65;101159.80;1722458;82;21341;-80
2021/04/10 05:53:02;;;;;;;17.07;8.43;;;;;;;6.95;50.35;101162.55;1702042;83;21809;-80
2021/04/10 05:56:07;;;;;;;22.70;9.08;;;;;;;7.12;49.96;101157.39;1722629;83;21418;-80
2021/04/10 05:59:12;;;;;;;16.90;8.58;;;;;;;7.27;49.80;101150.24;1721685;83;21326;-81
2021/04/10 06:02:19;;;;;;;15.32;8.03;;;;;;;7.39;48.09;101148.67;1722392;83;21338;-80
2021/04/10 06:05:25;;;;;;;17.35;8.15;;;;;;;7.54;48.43;101158.70;1722301;83;21216;-80
2021/04/10 06:08:30;;;;;;;15.20;8.25;;;;;;;7.66;47.56;101159.45;1722331;83;21865;-81
2021/04/10 06:11:36;;;;;;;14.23;8.25;;;;;;;7.79;48.09;101162.80;1722531;83;21196;-80
2021/04/10 06:14:42;;;;;;;13.62;8.18;;;;;;;7.94;47.12;101164.14;1722666;83;21275;-81
2021/04/10 06:17:47;;;;;;;18.07;9.03;;;;;;;8.08;46.96;101162.89;1722608;83;21306;-79
2021/04/10 06:20:53;;;;;;;13.93;8.58;;;;;;;8.17;45.99;101155.75;1722632;83;21822;-79
2021/04/10 06:23:59;;;;;;;15.93;9.03;;;;;;;8.22;46.71;101154.83;1722601;83;21204;-81
2021/04/10 06:27:04;;;;;;;14.78;7.62;;;;;;;8.31;46.57;101167.61;1722440;83;21787;-79
2021/04/10 06:30:14;;;;;;;13.68;7.70;;;;;;;8.38;45.33;101163.87;1722646;83;21834;-81
2021/04/10 06:33:22;;;;;;;13.03;7.35;;;;;;;8.44;44.44;101164.15;1703034;83;21298;-80
2021/04/10 06:36:28;;;;;;;14.45;8.13;;;;;;;8.50;44.56;101168.17;1722778;83;21259;-81
2021/04/10 06:39:34;;;;;;;15.72;8.58;;;;;;;8.60;44.25;101173.63;1722660;83;21168;-80
2021/04/10 06:42:41;;;;;;;17.85;8.10;;;;;;;8.72;44.76;101162.95;1722536;83;21185;-81
2021/04/10 06:45:47;;;;;;;15.48;7.25;;;;;;;8.87;45.33;101172.41;1722516;83;21299;-80
2021/04/10 06:48:57;;;;;;;11.00;6.67;;;;;;;9.04;43.36;101169.47;1722633;83;21347;-80
2021/04/10 06:52:04;;;;;;;15.80;7.37;;;;;;;9.20;43.59;101163.40;1666822;83;21224;-81
2021/04/10 06:55:17;;;;;;;10.53;6.47;;;;;;;9.33;41.73;101168.55;1722406;83;21283;-80
2021/04/10 06:58:27;;;;;;;10.65;6.33;;;;;;;9.37;42.09;101164.52;1722656;83;21314;-80
2021/04/10 07:01:33;;;;;;;8.55;5.10;;;;;;;9.44;40.55;101163.77;1722758;83;21280;-80
2021/04/10 07:04:38;;;;;;;12.93;5.83;;;;;;;9.53;40.52;101160.65;1722452;82;21200;-81
2021/04/10 07:07:43;;;;;;;9.05;5.20;;;;;;;9.61;40.12;101168.11;1722607;83;21220;-80
2021/04/10 07:10:51;;;;;;;7.67;5.55;;;;;;;9.67;39.12;101168.87;1722538;83;21730;-81
2021/04/10 07:13:57;;;;;;;10.00;5.50;;;;;;;9.75;40.15;101159.43;1721062;83;21700;-80
2021/04/10 07:17:03;;;;;;;8.85;5.20;;;;;;;9.89;39.60;101163.03;1721181;83;21212;-80
2021/04/10 07:20:30;;;;;;;8.50;5.70;;;;;;;10.01;38.47;101171.88;1722598;83;21307;-80
2021/04/10 07:23:36;;;;;;;12.33;6.47;;;;;;;10.05;38.91;101175.17;1722517;83;21299;-80
2021/04/10 07:27:00;;;;;;;12.80;6.05;;;;;;;10.13;38.92;101171.18;1722544;83;21279;-81
2021/04/10 07:30:10;;;;;;;11.85;5.60;;;;;;;10.19;39.26;101174.15;1722617;83;21286;-81
2021/04/10 07:33:16;;;;;;;9.40;4.70;;;;;;;10.21;38.62;101167.19;1722632;83;21754;-80
2021/04/10 07:36:24;;;;;;;9.13;6.08;;;;;;;10.27;38.27;101171.20;1722475;83;21267;-81
2021/04/10 07:39:30;;;;;;;9.55;5.20;;;;;;;10.30;38.24;101164.90;1702454;83;21813;-80
2021/04/10 07:42:36;;;;;;;10.68;5.65;;;;;;;10.35;38.72;101169.42;1722481;83;21294;-81
2021/04/10 07:45:43;;;;;;;10.23;6.15;;;;;;;10.45;37.31;101171.58;1722611;83;21724;-81
2021/04/10 07:48:51;;;;;;;10.25;6.08;;;;;;;10.47;35.48;101161.34;1722476;83;21208;-81
2021/04/10 07:52:08;;;;;;;10.95;4.70;;;;;;;10.41;36.03;101167.44;1716166;83;21279;-81
2021/04/10 07:55:10;;;;;;;11.95;4.90;;;;;;;10.44;36.10;101156.20;1722540;83;21885;-81
2021/04/10 07:58:37;;;;;;;9.38;4.15;;;;;;;10.53;36.50;101161.73;1722482;83;21192;-81
2021/04/10 08:01:42;;;;;;;6.28;3.30;;;;;;;10.67;37.13;101158.45;1721404;83;21373;-80
2021/04/10 08:05:06;;;;;;;10.75;3.27;;;;;;;10.78;33.36;101163.70;1758826;81;21155;-81
2021/04/10 08:08:12;;;;;;;6.37;3.90;;;;;;;10.85;33.83;101162.04;1739447;82;21312;-80
2021/04/10 08:11:17;;;;;;;7.25;3.95;;;;;;;10.91;33.27;101159.17;1746894;81;21277;-81
2021/04/10 08:14:25;;;;;;;6.15;3.52;;;;;;;10.99;34.38;101159.25;1746385;81;21629;-81
2021/04/10 08:17:48;;;;;;;7.30;3.98;;;;;;;11.11;32.76;101158.00;1758740;80;21190;-80
2021/04/10 08:20:57;;;;;;;8.90;4.92;;;;;;;11.13;34.89;101155.95;1697764;83;22113;-81
2021/04/10 08:24:03;;;;;;;7.67;4.40;;;;;;;11.18;34.31;101149.47;1728108;83;21342;-81
2021/04/10 08:27:19;;;;;;;11.45;4.20;;;;;;;11.21;33.54;101144.20;1726938;83;21314;-80
2021/04/10 08:30:24;;;;;;;11.18;3.25;;;;;;;11.18;33.01;101147.25;1709145;83;21339;-81
2021/04/10 08:33:30;;;;;;;6.03;3.58;;;;;;;11.20;32.43;101145.23;1725574;82;21350;-80
2021/04/10 08:36:36;;;;;;;6.58;3.95;;;;;;;11.24;32.35;101145.23;1725571;82;21330;-80
2021/04/10 08:39:46;;;;;;;6.12;3.75;;;;;;;11.25;31.89;101147.83;1727270;83;21283;-80
2021/04/10 08:42:52;;;;;;;5.62;3.20;;;;;;;11.19;32.37;101141.61;1727149;83;21165;-80
2021/04/10 08:45:59;;;;;;;5.65;2.83;;;;;;;11.25;32.27;101153.31;1727264;83;21830;-80
2021/04/10 08:49:06;;;;;;;4.12;3.25;;;;;;;11.26;30.50;101147.31;1727043;83;21212;-80
2021/04/10 08:52:14;;;;;;;5.85;3.45;;;;;;;11.14;31.17;101145.84;1708389;83;21192;-80
2021/04/10 08:55:20;;;;;;;9.80;3.17;;;;;;;10.94;31.79;101138.34;1708749;83;21876;-80
2021/04/10 08:58:35;;;;;;;8.85;2.98;;;;;;;10.83;31.27;101136.72;1727057;82;21307;-80
2021/04/10 09:01:42;;;;;;;4.03;2.52;;;;;;;10.77;31.06;101129.63;1720125;82;21845;-80
2021/04/10 09:05:05;;;;;;;10.50;3.90;;;;;;;10.71;32.41;101131.98;1708707;84;21289;-80
2021/04/10 09:08:09;;;;;;;5.40;2.72;;;;;;;10.83;32.32;101124.41;1666940;84;21311;-80
2021/04/10 09:11:15;;;;;;;6.67;3.25;;;;;;;11.00;30.98;101125.37;1708319;84;21275;-81
2021/04/10 09:14:21;;;;;;;6.90;3.33;;;;;;;11.16;31.82;101112.34;1707743;83;21858;-80
2021/04/10 09:17:25;;;;;;;6.85;3.42;;;;;;;11.38;31.86;101100.81;1707410;84;21758;-80
2021/04/10 09:20:54;;;;;;;10.38;4.00;;;;;;;11.49;31.51;101101.92;1708241;84;21284;-80
2021/04/10 09:24:00;;;;;;;7.70;4.35;;;;;;;11.40;30.70;101097.42;1707193;84;21889;-80
2021/04/10 09:27:18;;;;;;;15.48;5.30;;;;;;;11.30;30.53;101098.05;1707698;84;21229;-80
2021/04/10 09:30:25;;;;;;;9.98;3.55;;;;;;;11.26;31.03;101100.77;1708501;84;21857;-80
2021/04/10 09:33:41;;;;;;;6.55;3.60;;;;;;;11.16;31.40;101109.09;1686716;84;21344;-80
2021/04/10 09:36:56;;;;;;;6.05;3.60;;;;;;;11.08;31.26;101102.17;1708624;84;21292;-80
2021/04/10 09:40:06;;;;;;;31.15;13.40;;;;;;;11.00;31.97;101090.64;1708567;84;21838;-80
2021/04/10 09:43:13;;;;;;;;;;;;;;;11.10;31.77;101104.75;1711051;83;21315;-80
2021/04/10 09:46:39;;;;;;;4.55;2.80;;;;;;;11.18;31.06;101090.60;1707152;82;20253;-80
2021/04/10 09:49:44;;;;;;;4.78;2.80;;;;;;;11.24;30.75;101097.30;1677068;83;21213;-80
2021/04/10 09:52:50;;;;;;;4.70;2.80;;;;;;;11.33;30.78;101087.27;1708553;84;21348;-80
2021/04/10 09:55:59;;;;;;;5.87;3.12;;;;;;;11.50;31.56;101084.97;1707072;83;21174;-80
2021/04/10 09:59:06;;;;;;;5.50;2.65;;;;;;;11.61;31.98;101087.92;1701730;84;21292;-80
2021/04/10 10:02:12;;;;;;;7.03;3.33;;;;;;;11.77;32.56;101097.09;1669755;84;21311;-80
2021/04/10 10:05:18;;;;;;;5.40;2.80;;;;;;;11.87;31.41;101103.84;1747382;82;21210;-80
2021/04/10 10:08:28;;;;;;;4.75;2.75;;;;;;;11.78;31.32;101096.06;1746645;82;21286;-80
2021/04/10 10:11:33;;;;;;;5.00;2.98;;;;;;;11.73;30.68;101089.36;1747568;82;21269;-80
2021/04/10 10:14:55;;;;;;;4.83;3.15;;;;;;;11.75;30.88;101084.56;1747357;81;21301;-80
2021/04/10 10:18:03;;;;;;;7.30;3.37;;;;;;;11.80;30.56;101084.92;1746777;82;21194;-80
2021/04/10 10:21:26;;;;;;;6.42;3.40;;;;;;;11.88;30.32;101082.25;1747509;82;21277;-80
2021/04/10 10:24:32;;;;;;;5.72;3.17;;;;;;;11.83;30.30;101083.27;1747488;82;21351;-80
2021/04/10 10:27:50;;;;;;;4.25;3.05;;;;;;;11.81;30.44;101077.07;1746910;82;21760;-80
2021/04/10 10:30:54;;;;;;;9.63;3.40;;;;;;;11.83;31.77;101084.64;1747330;82;21305;-80
2021/04/10 10:34:00;;;;;;;15.55;5.30;;;;;;;11.86;29.27;101077.47;1747371;82;21202;-80
2021/04/10 10:37:07;;;;;;;5.30;2.80;;;;;;;11.84;28.99;101074.52;1745897;80;21611;-80
2021/04/10 10:40:14;;;;;;;6.78;3.10;;;;;;;11.73;29.69;101068.30;1715161;82;21318;-80
2021/04/10 10:43:19;;;;;;;5.37;3.20;;;;;;;11.62;30.19;101067.72;1733237;82;21316;-80
2021/04/10 10:46:27;;;;;;;6.17;3.22;;;;;;;11.64;30.52;101061.06;1732883;82;21293;-80
2021/04/10 10:49:32;;;;;;;7.20;3.30;;;;;;;11.69;31.37;101064.16;1733072;82;21751;-80
2021/04/10 10:52:38;;;;;;;6.45;2.75;;;;;;;11.82;31.47;101066.48;1747493;82;21301;-80
2021/04/10 10:56:03;;;;;;;11.03;4.00;;;;;;;11.95;30.44;101055.02;1747518;82;21297;-80
2021/04/10 10:59:11;;;;;;;6.05;3.22;;;;;;;12.07;30.52;101048.20;1731893;82;21265;-80
2021/04/10 11:02:18;;;;;;;11.10;4.12;;;;;;;12.27;30.74;101054.23;1747411;82;21301;-80
2021/04/10 11:05:23;;;;;;;4.62;3.22;;;;;;;12.28;29.10;101059.57;1758524;81;21296;-80
2021/04/10 11:08:30;;;;;;;9.60;3.77;;;;;;;12.15;28.62;101050.97;1747548;81;21618;-80
2021/04/10 11:11:40;;;;;;;9.55;3.10;;;;;;;12.10;28.58;101034.17;1747565;81;21281;-80
2021/04/10 11:14:47;;;;;;;7.40;3.98;;;;;;;12.18;29.03;101040.16;1759143;81;21197;-80
2021/04/10 11:17:51;;;;;;;6.08;2.98;;;;;;;12.33;28.48;101047.20;1747510;81;21301;-80
2021/04/10 11:20:56;;;;;;;7.03;3.87;;;;;;;12.40;28.56;101041.39;1729047;81;21790;-80
2021/04/10 11:24:06;;;;;;;9.88;4.20;;;;;;;12.43;28.57;101040.55;1747677;81;21867;-80
2021/04/10 11:27:30;;;;;;;18.48;3.92;;;;;;;12.46;30.80;101040.19;1758931;81;21288;-80
2021/04/10 11:30:35;;;;;;;10.68;4.72;;;;;;;12.27;29.55;101032.28;1758773;81;21331;-80
2021/04/10 11:33:46;;;;;;;9.05;4.20;;;;;;;11.99;29.94;101029.84;1758840;81;21197;-80
2021/04/10 11:37:02;;;;;;;7.25;4.20;;;;;;;11.82;30.22;101021.25;1747306;81;21170;-80
2021/04/10 11:40:19;;;;;;;8.30;4.80;;;;;;;11.73;31.15;101025.81;1758630;81;21277;-80
2021/04/10 11:43:25;;;;;;;8.60;4.70;;;;;;;11.78;29.97;101017.95;1759008;81;21221;-80
2021/04/10 11:46:31;;;;;;;7.75;3.62;;;;;;;11.84;30.25;101032.89;1747564;81;21218;-80
2021/04/10 11:49:38;;;;;;;14.58;7.20;;;;;;;11.86;30.06;101012.19;1758700;80;21324;-80
2021/04/10 11:52:44;;;;;;;15.85;6.28;;;;;;;11.87;30.16;101007.90;1758815;80;21307;-80
2021/04/10 11:55:49;;;;;;;40.10;16.30;;;;;;;11.95;30.25;101001.56;1758827;81;21200;-80
2021/04/10 11:58:58;;;;;;;5.85;3.90;;;;;;;12.06;29.66;100996.28;1757424;81;21351;-81
2021/04/10 12:02:09;;;;;;;12.23;3.65;;;;;;;12.17;28.88;101002.80;1746410;81;21305;-81
2021/04/10 12:05:37;;;;;;;10.08;4.65;;;;;;;12.17;28.88;101002.80;1773867;80;21387;-82
2021/04/10 12:08:43;;;;;;;6.53;3.90;;;;;;;12.23;29.11;100986.54;1743944;81;21201;-81
2021/04/10 12:11:51;;;;;;;5.05;3.25;;;;;;;12.33;28.68;100985.48;1744509;81;21178;-81
2021/04/10 12:14:57;;;;;;;10.08;5.25;;;;;;;12.41;29.21;100974.52;1744655;82;21304;-81
2021/04/10 12:18:07;;;;;;;9.85;5.58;;;;;;;12.51;29.28;100981.56;1723344;82;21174;-81
2021/04/10 12:21:18;;;;;;;8.48;3.98;;;;;;;12.54;28.59;100979.83;1719319;82;21178;-80
2021/04/10 12:24:24;;;;;;;7.03;3.55;;;;;;;12.41;28.00;100984.97;1744428;82;21169;-80
2021/04/10 12:27:29;;;;;;;10.08;4.12;;;;;;;12.28;28.20;100980.55;1744599;81;21887;-80
2021/04/10 12:30:35;;;;;;;13.78;5.10;;;;;;;12.14;28.12;100986.67;1704501;82;21304;-80
2021/04/10 12:33:40;;;;;;;7.62;4.08;;;;;;;12.03;28.75;100979.13;1743583;81;21340;-80
2021/04/10 12:36:48;;;;;;;7.70;3.75;;;;;;;12.03;29.18;100972.27;1744875;81;21234;-80
2021/04/10 12:39:54;;;;;;;8.55;4.37;;;;;;;12.07;28.42;100971.94;1722782;82;21739;-80
2021/04/10 12:43:00;;;;;;;5.33;3.27;;;;;;;12.04;28.85;100970.38;1744702;81;21858;-80
2021/04/10 12:46:07;;;;;;;8.40;4.50;;;;;;;12.03;28.97;100965.42;1743749;82;21770;-80
2021/04/10 12:49:14;;;;;;;7.28;3.60;;;;;;;12.07;29.40;100967.31;1722480;82;21647;-80
2021/04/10 12:52:19;;;;;;;8.93;3.77;;;;;;;12.10;28.79;100968.36;1743723;81;21714;-80
2021/04/10 12:55:26;;;;;;;8.60;4.67;;;;;;;12.10;28.71;100957.91;1744782;82;21225;-80
2021/04/10 12:58:31;;;;;;;7.97;4.10;;;;;;;12.11;28.53;100956.35;1743803;81;21301;-80
2021/04/10 13:01:37;;;;;;;11.95;4.80;;;;;;;12.14;27.82;100956.50;1744902;82;21324;-80
2021/04/10 13:04:41;;;;;;;8.98;4.00;;;;;;;12.16;28.05;100952.58;1722650;82;21281;-80
2021/04/10 13:07:48;;;;;;;9.05;4.67;;;;;;;12.17;28.48;100955.66;1679421;85;21838;-80
2021/04/10 13:10:54;;;;;;;8.33;4.90;;;;;;;12.16;28.01;100951.20;1671125;85;21365;-80
2021/04/10 13:14:00;;;;;;;8.95;4.47;;;;;;;12.15;28.05;100959.62;1678589;85;21514;-80
2021/04/10 13:17:07;;;;;;;8.33;4.00;;;;;;;12.14;28.41;100953.77;1678557;85;21308;-80
2021/04/10 13:20:15;;;;;;;9.93;4.37;;;;;;;12.11;28.41;100956.87;1668804;85;21254;-80
2021/04/10 13:23:21;;;;;;;10.58;4.62;;;;;;;12.05;29.36;100956.19;1651641;85;22028;-80
2021/04/10 13:26:27;;;;;;;11.45;3.90;;;;;;;12.05;28.57;100958.94;1652484;87;21368;-80
2021/04/10 13:29:34;;;;;;;8.68;5.03;;;;;;;12.01;29.07;100952.41;1652309;87;21333;-80
2021/04/10 13:32:40;;;;;;;6.70;4.28;;;;;;;12.00;28.93;100963.55;1652517;85;21712;-80
2021/04/10 13:35:46;;;;;;;8.10;4.83;;;;;;;11.96;29.15;100961.66;1652638;87;21246;-80
2021/04/10 13:38:46;;;;;;;8.58;6.08;;;;;;;11.94;29.18;100961.47;1652503;85;21345;-80
2021/04/10 13:41:51;;;;;;;16.63;7.73;;;;;;;11.95;28.36;100963.17;1631317;85;21305;-80
2021/04/10 13:44:58;;;;;;;69.97;29.23;;;;;;;11.91;28.31;100958.57;1651282;86;21188;-80
2021/04/10 13:48:04;;;;;;;10.90;6.00;;;;;;;11.86;28.10;100955.48;1652525;85;21804;-80
2021/04/10 13:51:10;;;;;;;8.90;5.22;;;;;;;11.80;28.16;100951.14;1632307;87;21870;-80
2021/04/10 13:54:18;;;;;;;7.87;4.40;;;;;;;11.75;28.99;100952.50;1652611;87;21855;-80
2021/04/10 13:57:24;;;;;;;8.35;5.05;;;;;;;11.74;29.41;100953.53;1652429;85;21352;-80
2021/04/10 14:00:30;;;;;;;13.50;4.62;;;;;;;11.77;29.05;100961.94;1632460;87;21760;-80
2021/04/10 14:03:38;;;;;;;7.55;4.10;;;;;;;11.80;29.55;100958.84;1652483;85;21206;-80
2021/04/10 14:06:46;;;;;;;8.13;4.40;;;;;;;11.82;29.60;100954.09;1662361;83;21729;-80
2021/04/10 14:09:53;;;;;;;9.63;4.47;;;;;;;11.81;28.98;100944.63;1726623;83;21176;-80
2021/04/10 14:12:58;;;;;;;6.53;4.17;;;;;;;11.77;29.37;100943.61;1707596;83;21318;-80
2021/04/10 14:16:04;;;;;;;7.60;4.67;;;;;;;11.73;29.86;100944.11;1728170;83;21165;-80
2021/04/10 14:19:10;;;;;;;8.45;4.67;;;;;;;11.70;29.90;100940.33;1725873;83;21191;-80
2021/04/10 14:22:14;;;;;;;7.75;4.37;;;;;;;11.69;29.86;100953.69;1728314;83;21322;-80
2021/04/10 14:25:20;;;;;;;6.20;4.00;;;;;;;11.67;29.87;100943.42;1728254;83;21279;-80
2021/04/10 14:28:25;;;;;;;7.03;4.20;;;;;;;11.65;29.93;100939.98;1728136;83;21203;-80
2021/04/10 14:31:32;;;;;;;11.78;4.20;;;;;;;11.63;30.33;100936.56;1728119;83;21322;-80